Time;durP1;ratioP1;P1;durP2;ratioP2;P2;SDS_P1;SDS_P2;PMS_P1;PMS_P2;Temp;Humidity;BMP_temperature;BMP_pressure;BME280_temperature;BME280_humidity;BME280_pressure;Samples;Min_cycle;Max_cycle;Signal;HPM_P1;HPM_P2
2024/03/07 00:04:45;;;;;;;20.33;11.75;;;16.10;99.90;;;;;;10533966;27;20086;-59
2024/03/07 00:09:47;;;;;;;25.50;14.25;;;16.10;99.90;;;;;;10527170;28;20051;-61
2024/03/07 00:14:51;;;;;;;18.63;9.82;;;16.00;99.90;;;;;;10535236;28;20051;-60
2024/03/07 00:19:53;;;;;;;28.80;15.30;;;16.00;99.90;;;;;;10527852;28;20055;-60
2024/03/07 00:24:55;;;;;;;23.60;11.30;;;15.90;99.90;;;;;;10534142;28;20081;-59
2024/03/07 00:29:59;;;;;;;21.73;11.68;;;16.00;99.90;;;;;;10534288;28;20524;-60
2024/03/07 00:35:02;;;;;;;18.70;10.75;;;15.90;99.90;;;;;;10538527;27;20052;-60
2024/03/07 00:40:06;;;;;;;22.02;11.63;;;15.90;99.90;;;;;;10542873;28;20229;-60
2024/03/07 00:45:09;;;;;;;18.13;11.00;;;15.80;99.90;;;;;;10543680;27;20055;-60
2024/03/07 00:50:11;;;;;;;20.10;11.80;;;15.70;99.90;;;;;;10542246;27;20055;-60
2024/03/07 00:55:14;;;;;;;31.75;18.67;;;15.70;99.90;;;;;;10539957;27;20040;-60
2024/03/07 01:00:21;;;;;;;17.75;9.68;;;15.70;99.90;;;;;;10540195;28;20465;-60
2024/03/07 01:05:23;;;;;;;27.33;17.40;;;15.70;99.90;;;;;;10542664;27;20047;-59
2024/03/07 01:10:25;;;;;;;15.95;9.27;;;15.70;99.90;;;;;;10540770;27;20185;-59
2024/03/07 01:15:29;;;;;;;20.27;10.83;;;15.60;99.90;;;;;;10542176;27;20087;-59
2024/03/07 01:20:31;;;;;;;21.92;12.60;;;15.60;99.90;;;;;;10541873;28;20146;-60
2024/03/07 01:25:33;;;;;;;15.07;9.60;;;15.60;99.90;;;;;;10541092;27;20422;-60
2024/03/07 01:30:37;;;;;;;18.45;11.48;;;15.60;99.90;;;;;;10536769;28;22138;-60
2024/03/07 01:35:39;;;;;;;19.75;11.98;;;15.60;99.90;;;;;;10537577;27;20063;-60
2024/03/07 01:40:41;;;;;;;26.77;15.40;;;15.60;99.90;;;;;;10539488;27;20048;-61
2024/03/07 01:45:49;;;;;;;18.63;10.85;;;15.60;99.90;;;;;;10537543;27;20503;-60
2024/03/07 01:50:51;;;;;;;18.73;12.10;;;15.60;99.90;;;;;;10535490;27;20202;-60
2024/03/07 01:55:53;;;;;;;20.33;12.20;;;15.60;99.90;;;;;;10534830;28;20077;-59
2024/03/07 02:01:01;;;;;;;;;;;15.60;99.90;;;;;;10536226;27;20055;-60
2024/03/07 02:06:08;;;;;;;19.00;11.18;;;15.60;99.90;;;;;;10533661;27;20000;-60
2024/03/07 02:11:10;;;;;;;16.55;9.52;;;15.70;99.90;;;;;;10535687;28;20051;-60
2024/03/07 02:16:14;;;;;;;18.83;9.20;;;15.70;99.90;;;;;;10537749;27;23005;-59
2024/03/07 02:21:17;;;;;;;20.10;12.40;;;15.70;99.90;;;;;;10533220;28;20094;-60
2024/03/07 02:26:23;;;;;;;18.27;10.70;;;15.50;99.90;;;;;;10533310;27;20100;-60
2024/03/07 02:31:34;;;;;;;21.50;12.20;;;15.50;99.90;;;;;;10529644;27;20220;-60
2024/03/07 02:36:38;;;;;;;31.75;18.70;;;15.50;99.90;;;;;;10538456;27;20046;-59
2024/03/07 02:41:40;;;;;;;31.17;18.20;;;15.40;99.90;;;;;;10538365;28;20086;-59
2024/03/07 02:46:46;;;;;;;15.00;9.40;;;15.40;99.90;;;;;;10540177;27;20064;-60
2024/03/07 02:51:50;;;;;;;20.33;10.57;;;15.50;99.90;;;;;;10536454;27;20054;-60
2024/03/07 02:56:56;;;;;;;21.27;12.48;;;15.50;99.90;;;;;;10539229;28;20051;-63
2024/03/07 03:01:58;;;;;;;23.48;13.60;;;15.50;99.90;;;;;;10537914;27;20055;-60
2024/03/07 03:07:02;;;;;;;25.97;14.20;;;15.40;99.90;;;;;;10540172;27;20137;-60
2024/03/07 03:12:04;;;;;;;22.20;13.20;;;15.20;99.90;;;;;;10540633;28;20476;-61
2024/03/07 03:17:08;;;;;;;20.42;10.25;;;15.30;99.90;;;;;;10540911;27;20370;-60
2024/03/07 03:22:16;;;;;;;14.05;9.10;;;15.30;99.90;;;;;;10539981;28;20054;-61
2024/03/07 03:27:18;;;;;;;26.40;14.68;;;15.40;99.90;;;;;;10542056;27;20073;-59
2024/03/07 03:32:20;;;;;;;30.67;17.58;;;15.40;99.90;;;;;;10543410;28;20059;-61
2024/03/07 03:37:23;;;;;;;14.73;8.27;;;15.30;99.90;;;;;;10534838;28;20054;-60
2024/03/07 03:42:25;;;;;;;27.58;15.88;;;15.20;99.90;;;;;;10542473;27;20491;-61
2024/03/07 03:47:28;;;;;;;32.25;19.73;;;15.30;99.90;;;;;;10538228;28;20136;-60
2024/03/07 03:52:32;;;;;;;16.63;10.43;;;15.20;99.90;;;;;;10539656;28;20054;-60
2024/03/07 04:15:32;;;;;;;31.27;15.27;;;15.30;99.90;;;;;;10076319;27;12063511;-60
2024/03/07 04:20:34;;;;;;;34.35;19.52;;;15.30;99.90;;;;;;10462933;28;20041;-60
2024/03/07 04:25:36;;;;;;;18.00;10.63;;;15.20;99.90;;;;;;10465253;28;20172;-60
2024/03/07 04:30:40;;;;;;;19.48;11.82;;;15.10;99.90;;;;;;10463782;28;21626;-59
2024/03/07 04:35:42;;;;;;;26.83;16.00;;;15.10;99.90;;;;;;10458617;28;20060;-60
2024/03/07 04:40:44;;;;;;;19.20;11.77;;;15.10;99.90;;;;;;10461248;28;22834;-60
2024/03/07 04:45:47;;;;;;;25.30;14.57;;;15.10;99.90;;;;;;10460677;28;20060;-60
2024/03/07 04:50:49;;;;;;;29.23;14.82;;;15.00;99.90;;;;;;10460470;28;20080;-59
2024/03/07 04:55:56;;;;;;;18.90;10.07;;;15.00;99.90;;;;;;10460146;28;20079;-61
2024/03/07 05:01:00;;;;;;;29.63;14.02;;;15.00;99.90;;;;;;10458590;28;20049;-61
2024/03/07 05:06:06;;;;;;;16.40;9.60;;;15.10;99.90;;;;;;10460367;28;20182;-60
2024/03/07 05:11:08;;;;;;;33.33;17.67;;;15.10;99.90;;;;;;10457122;28;20055;-60
2024/03/07 05:16:12;;;;;;;25.58;14.25;;;15.20;99.90;;;;;;10464060;28;20052;-62
2024/03/07 05:26:35;;;;;;;21.05;12.20;;;15.20;99.90;;;;;;10436802;28;20508;-60
2024/03/07 05:31:46;;;;;;;19.90;10.43;;;15.30;99.90;;;;;;10430837;28;20036;-60
2024/03/07 05:36:48;;;;;;;23.20;12.82;;;15.40;99.90;;;;;;10430971;28;20114;-61
2024/03/07 05:41:50;;;;;;;28.77;16.27;;;15.40;99.90;;;;;;10439997;28;20100;-61
2024/03/07 05:46:54;;;;;;;28.37;16.50;;;15.30;99.90;;;;;;10432914;28;20048;-62
2024/03/07 05:51:57;;;;;;;25.52;13.43;;;15.40;99.90;;;;;;10429551;28;20128;-63
2024/03/07 05:56:59;;;;;;;15.43;9.57;;;15.40;99.90;;;;;;10435719;28;20060;-61
2024/03/07 06:02:03;;;;;;;22.92;11.77;;;15.40;99.90;;;;;;10432287;28;20053;-58
2024/03/07 06:07:06;;;;;;;22.02;12.32;;;15.70;99.90;;;;;;10429175;28;20053;-59
2024/03/07 06:12:09;;;;;;;28.10;16.33;;;15.60;99.90;;;;;;10429160;28;20107;-59
2024/03/07 06:17:13;;;;;;;20.58;12.60;;;15.80;99.90;;;;;;10434148;28;20466;-60
2024/03/07 06:22:15;;;;;;;34.25;18.40;;;15.80;99.90;;;;;;10430042;28;20055;-59
2024/03/07 06:27:26;;;;;;;29.17;11.77;;;15.70;99.90;;;;;;10429833;28;20063;-61
2024/03/07 06:32:30;;;;;;;29.38;17.00;;;15.70;99.90;;;;;;10428860;28;20255;-61
2024/03/07 06:37:32;;;;;;;27.90;15.13;;;15.70;99.90;;;;;;10433384;28;20064;-61
2024/03/07 06:42:33;;;;;;;23.93;14.47;;;15.50;99.90;;;;;;10436083;28;20059;-60
2024/03/07 06:47:37;;;;;;;22.70;12.07;;;15.50;99.90;;;;;;10433325;28;20083;-59
2024/03/07 06:52:39;;;;;;;25.20;14.60;;;15.50;99.90;;;;;;10431332;28;20090;-61
2024/03/07 06:57:40;;;;;;;16.70;9.43;;;15.50;99.90;;;;;;10433467;28;20064;-59
2024/03/07 07:02:44;;;;;;;21.07;10.80;;;15.50;99.90;;;;;;10434580;28;20059;-60
2024/03/07 07:07:46;;;;;;;28.35;15.10;;;15.60;99.90;;;;;;10436205;28;20069;-59
2024/03/07 07:12:49;;;;;;;16.30;9.37;;;15.80;99.90;;;;;;10432999;28;20084;-60
2024/03/07 07:17:52;;;;;;;26.23;15.77;;;15.70;99.90;;;;;;10435507;28;21432;-60
2024/03/07 07:22:54;;;;;;;19.63;10.88;;;16.10;99.90;;;;;;10436934;28;20072;-60
2024/03/07 07:27:57;;;;;;;23.48;10.85;;;15.90;99.90;;;;;;10442896;28;20103;-61
2024/03/07 07:33:01;;;;;;;15.73;9.82;;;16.00;99.90;;;;;;10438631;28;20052;-60
2024/03/07 07:38:03;;;;;;;38.53;21.58;;;16.00;99.90;;;;;;10432875;28;20049;-59
2024/03/07 07:43:05;;;;;;;29.27;17.25;;;16.00;99.90;;;;;;10433908;28;20721;-59
2024/03/07 07:48:11;;;;;;;22.83;12.18;;;16.10;99.90;;;;;;10430941;28;20107;-60
2024/03/07 07:53:13;;;;;;;30.27;16.98;;;16.20;99.90;;;;;;10427953;28;20110;-61
2024/03/07 07:58:16;;;;;;;24.67;14.38;;;16.10;99.90;;;;;;10410167;28;20086;-59
2024/03/07 08:03:20;;;;;;;30.60;16.88;;;16.20;99.90;;;;;;10416938;28;20930;-61
2024/03/07 08:08:22;;;;;;;36.53;22.15;;;16.40;99.90;;;;;;10424044;28;20057;-60
2024/03/07 08:13:25;;;;;;;22.35;11.90;;;16.20;99.90;;;;;;10420963;28;20049;-59
2024/03/07 08:18:29;;;;;;;23.30;12.88;;;16.30;99.90;;;;;;10427499;28;20665;-60
2024/03/07 08:23:32;;;;;;;22.30;13.55;;;16.10;99.90;;;;;;10423633;28;20045;-61
2024/03/07 08:28:34;;;;;;;24.20;13.95;;;16.20;99.90;;;;;;10419081;28;20420;-58
2024/03/07 08:33:37;;;;;;;25.97;15.23;;;16.30;99.90;;;;;;10424548;28;20060;-58
2024/03/07 08:38:39;;;;;;;31.88;18.15;;;16.10;99.90;;;;;;10415725;28;20459;-61
2024/03/07 08:43:41;;;;;;;32.95;19.83;;;16.10;99.90;;;;;;10422500;28;20064;-60
2024/03/07 08:48:45;;;;;;;36.83;21.75;;;16.10;99.90;;;;;;10427331;28;20056;-60
2024/03/07 08:53:47;;;;;;;37.28;21.30;;;16.30;99.90;;;;;;10427230;28;20484;-59
2024/03/07 08:58:49;;;;;;;23.73;12.50;;;16.20;99.90;;;;;;10370147;28;20064;-60
2024/03/07 09:03:52;;;;;;;35.72;21.02;;;16.40;99.90;;;;;;10356764;28;20088;-60
2024/03/07 09:08:54;;;;;;;37.55;22.52;;;16.20;99.90;;;;;;10360091;28;20176;-60
2024/03/07 09:13:56;;;;;;;35.13;20.20;;;16.20;99.90;;;;;;10362192;28;20691;-60
2024/03/07 09:18:59;;;;;;;15.75;10.07;;;16.20;99.90;;;;;;10360001;28;20048;-60
2024/03/07 09:24:02;;;;;;;33.15;19.10;;;16.70;99.90;;;;;;10359649;28;20076;-61
2024/03/07 09:29:06;;;;;;;16.35;10.07;;;16.60;99.90;;;;;;10360528;28;20172;-61
2024/03/07 09:34:10;;;;;;;17.50;9.75;;;16.60;99.90;;;;;;10360097;28;20050;-61
2024/03/07 09:39:12;;;;;;;24.23;14.60;;;17.50;99.90;;;;;;10363329;28;20049;-60
2024/03/07 09:44:22;;;;;;;;;;;17.90;99.90;;;;;;10355821;28;20107;-62
2024/03/07 09:49:25;;;;;;;17.83;10.23;;;17.90;99.90;;;;;;10349368;28;20807;-58
2024/03/07 09:54:29;;;;;;;21.50;11.20;;;18.10;99.90;;;;;;10360020;28;20527;-60
2024/03/07 09:59:36;;;;;;;15.65;9.00;;;18.20;99.90;;;;;;10358425;28;20744;-59
2024/03/07 10:04:45;;;;;;;22.05;12.07;;;18.20;99.90;;;;;;10361473;28;20104;-60
2024/03/07 10:09:59;;;;;;;18.77;10.70;;;18.20;99.90;;;;;;10360168;28;20060;-59
2024/03/07 10:15:05;;;;;;;26.48;14.65;;;18.40;99.90;;;;;;10355250;28;20108;-60
2024/03/07 10:20:13;;;;;;;20.88;12.70;;;18.20;99.90;;;;;;10368281;28;20057;-59
2024/03/07 10:25:17;;;;;;;23.52;14.50;;;17.90;99.90;;;;;;10361311;28;20057;-60
2024/03/07 10:30:21;;;;;;;22.63;13.38;;;17.30;99.90;;;;;;10364212;28;20528;-60
2024/03/07 10:35:25;;;;;;;18.38;11.93;;;17.10;99.90;;;;;;10359032;28;20061;-60
2024/03/07 10:40:27;;;;;;;54.17;16.10;;;17.50;99.90;;;;;;10351594;28;20072;-59
2024/03/07 10:45:31;;;;;;;25.50;12.75;;;16.90;99.90;;;;;;10352138;28;20649;-56
2024/03/07 10:50:48;;;;;;;27.67;12.15;;;17.20;99.90;;;;;;10353225;28;20132;-60
2024/03/07 10:56:06;;;;;;;19.40;12.55;;;17.40;99.90;;;;;;10355040;28;20108;-58
2024/03/07 11:01:12;;;;;;;19.80;12.63;;;17.40;99.90;;;;;;10351763;28;20887;-60
2024/03/07 11:06:17;;;;;;;14.93;9.25;;;17.10;96.10;;;;;;10355682;28;20038;-59
2024/03/07 11:11:19;;;;;;;16.90;10.40;;;17.40;99.90;;;;;;10353223;28;20061;-59
2024/03/07 11:16:23;;;;;;;15.52;8.32;;;17.10;99.90;;;;;;10352613;28;20038;-57
2024/03/07 11:21:49;;;;;;;17.55;10.73;;;17.20;99.90;;;;;;10348757;28;20211;-59
2024/03/07 11:26:53;;;;;;;47.30;11.85;;;17.40;99.90;;;;;;10355861;28;20057;-60
2024/03/07 11:31:56;;;;;;;15.57;10.32;;;17.20;99.90;;;;;;10347760;28;20411;-59
2024/03/07 11:36:59;;;;;;;15.85;9.73;;;16.90;99.90;;;;;;10348978;28;20076;-60
2024/03/07 11:42:02;;;;;;;15.30;9.88;;;17.20;99.90;;;;;;10360096;28;20065;-59
2024/03/07 11:47:09;;;;;;;15.55;10.85;;;17.80;99.90;;;;;;10353107;28;20520;-58
2024/03/07 11:52:14;;;;;;;12.80;8.63;;;17.60;99.90;;;;;;10358423;28;22342;-61
2024/03/07 11:57:26;;;;;;;22.02;13.00;;;17.50;99.90;;;;;;10359721;28;20056;-60
2024/03/07 12:02:29;;;;;;;18.17;11.97;;;17.30;99.90;;;;;;10360863;28;20164;-59
2024/03/07 12:07:33;;;;;;;17.73;11.90;;;17.10;99.90;;;;;;10360724;28;20041;-58
2024/03/07 12:12:38;;;;;;;16.17;11.43;;;17.40;99.90;;;;;;10354342;28;20053;-60
2024/03/07 12:17:41;;;;;;;17.08;11.10;;;17.30;99.90;;;;;;10352673;28;20064;-58
2024/03/07 12:22:45;;;;;;;18.58;11.75;;;18.40;99.90;;;;;;10359102;28;20060;-57
2024/03/07 12:27:47;;;;;;;20.33;11.55;;;18.00;98.30;;;;;;10359646;28;20047;-58
2024/03/07 12:32:50;;;;;;;19.75;10.40;;;17.90;98.00;;;;;;10356316;28;20044;-59
2024/03/07 12:37:57;;;;;;;;;;;18.00;96.90;;;;;;10370446;28;20651;-58
2024/03/07 12:43:00;;;;;;;15.10;9.63;;;17.80;99.50;;;;;;10369377;28;20111;-60
2024/03/07 12:48:04;;;;;;;17.55;10.25;;;18.20;99.90;;;;;;10365744;28;20053;-60
2024/03/07 12:53:11;;;;;;;18.35;11.50;;;18.60;99.30;;;;;;10364966;28;20049;-58
2024/03/07 12:58:15;;;;;;;20.33;10.23;;;18.60;99.90;;;;;;10362698;28;20195;-61
2024/03/07 13:03:17;;;;;;;19.55;11.18;;;18.40;97.70;;;;;;10366052;28;20605;-60
2024/03/07 13:08:25;;;;;;;19.45;11.38;;;18.60;98.10;;;;;;10369312;28;20045;-58
2024/03/07 13:13:27;;;;;;;18.75;11.18;;;18.70;97.20;;;;;;10362269;28;20057;-59
2024/03/07 13:18:33;;;;;;;21.20;12.00;;;18.90;97.80;;;;;;10359440;28;20088;-59
2024/03/07 13:23:39;;;;;;;22.75;12.00;;;19.10;98.70;;;;;;10366888;28;20063;-61
2024/03/07 13:28:41;;;;;;;22.63;14.63;;;19.20;98.80;;;;;;10361629;28;20042;-61
2024/03/07 13:33:43;;;;;;;20.98;13.02;;;19.20;95.50;;;;;;10355190;28;22494;-59
2024/03/07 13:38:47;;;;;;;16.40;11.18;;;19.70;92.90;;;;;;10361923;28;20948;-60
2024/03/07 13:43:49;;;;;;;25.40;15.07;;;20.00;97.30;;;;;;10364171;28;20080;-59
2024/03/07 13:48:52;;;;;;;17.65;12.68;;;19.90;93.60;;;;;;10357174;28;20053;-60
2024/03/07 13:54:08;;;;;;;18.30;11.52;;;20.20;96.90;;;;;;10353669;28;20042;-59
2024/03/07 13:59:52;;;;;;;16.40;11.70;;;20.40;96.00;;;;;;10354679;28;20048;-59
2024/03/07 14:05:33;;;;;;;19.23;13.40;;;20.60;97.20;;;;;;10355434;28;20123;-61
2024/03/07 14:11:11;;;;;;;19.50;12.35;;;21.00;90.40;;;;;;10355841;28;20500;-61
2024/03/07 14:16:56;;;;;;;23.15;14.68;;;21.10;89.70;;;;;;10360256;28;20511;-61
2024/03/07 14:22:21;;;;;;;19.77;11.77;;;21.30;93.50;;;;;;10358822;28;22931;-59
2024/03/07 14:27:35;;;;;;;20.77;14.75;;;21.60;91.90;;;;;;10355107;28;20616;-60
2024/03/07 14:32:39;;;;;;;18.58;11.75;;;21.60;93.70;;;;;;10354524;28;20045;-61
2024/03/07 14:37:50;;;;;;;17.27;12.32;;;22.00;94.40;;;;;;10357072;28;20077;-60
2024/03/07 14:42:57;;;;;;;20.88;13.98;;;22.30;94.70;;;;;;10353512;28;20069;-59
2024/03/07 14:48:00;;;;;;;19.50;13.88;;;22.50;94.20;;;;;;10350516;28;20145;-61
2024/03/07 14:53:04;;;;;;;18.17;13.18;;;22.30;85.50;;;;;;10352673;28;20181;-62
2024/03/07 14:58:09;;;;;;;17.58;12.38;;;22.30;94.00;;;;;;10358024;28;21376;-59
2024/03/07 15:03:14;;;;;;;19.17;11.77;;;22.20;95.30;;;;;;10360978;28;20045;-60
2024/03/07 15:08:17;;;;;;;19.13;11.27;;;22.30;96.10;;;;;;10357356;28;20049;-60
2024/03/07 15:13:21;;;;;;;14.48;11.25;;;22.60;96.30;;;;;;10358053;28;20299;-57
2024/03/07 15:18:23;;;;;;;17.17;10.85;;;22.50;89.60;;;;;;10354490;28;20041;-59
2024/03/07 15:23:25;;;;;;;14.57;10.45;;;22.20;93.10;;;;;;10353117;28;20127;-60
2024/03/07 15:28:30;;;;;;;17.50;10.50;;;22.50;96.40;;;;;;10351215;28;20436;-59
2024/03/07 15:33:31;;;;;;;14.07;10.80;;;22.20;95.50;;;;;;10353622;28;20058;-59
2024/03/07 15:38:37;;;;;;;15.85;10.50;;;22.10;93.90;;;;;;10353559;28;20057;-60
2024/03/07 15:43:42;;;;;;;15.27;10.68;;;22.10;97.40;;;;;;10356183;28;20049;-60
2024/03/07 15:48:48;;;;;;;14.35;8.68;;;22.10;97.40;;;;;;10364819;28;20058;-59
2024/03/07 15:53:50;;;;;;;13.90;9.45;;;22.20;94.40;;;;;;10353201;28;20080;-59
2024/03/07 15:58:53;;;;;;;14.77;11.00;;;22.10;95.40;;;;;;10355715;28;20151;-60
2024/03/07 16:03:55;;;;;;;15.75;11.82;;;21.80;92.50;;;;;;10350465;28;20042;-61
2024/03/07 16:08:57;;;;;;;19.08;11.25;;;21.60;96.10;;;;;;10358791;28;20497;-60
2024/03/07 16:14:01;;;;;;;13.07;8.77;;;21.50;93.70;;;;;;10346516;28;20065;-60
2024/03/07 16:19:05;;;;;;;14.63;8.18;;;21.70;94.70;;;;;;10355898;28;20092;-59
2024/03/07 16:24:08;;;;;;;18.35;12.18;;;21.50;96.30;;;;;;10361729;28;20037;-60
2024/03/07 16:29:11;;;;;;;14.80;11.07;;;21.30;95.00;;;;;;10365665;28;20111;-59
2024/03/07 16:34:13;;;;;;;12.55;10.15;;;21.50;97.40;;;;;;10355505;28;20911;-60
2024/03/07 16:39:15;;;;;;;14.50;11.15;;;21.50;96.60;;;;;;10353742;28;20160;-61
2024/03/07 16:44:22;;;;;;;13.00;9.80;;;21.60;98.10;;;;;;10356616;28;20524;-59
2024/03/07 16:49:26;;;;;;;12.65;9.10;;;21.50;98.10;;;;;;10358720;28;20054;-61
2024/03/07 16:54:28;;;;;;;13.25;9.70;;;21.40;99.30;;;;;;10358690;28;20141;-59
2024/03/07 16:59:34;;;;;;;;;;;21.40;99.10;;;;;;10349691;28;20062;-60
2024/03/07 17:04:35;;;;;;;12.68;9.65;;;21.60;98.40;;;;;;10353279;28;19929;-61
2024/03/07 17:09:41;;;;;;;12.43;9.38;;;21.50;98.10;;;;;;10353227;28;20149;-61
2024/03/07 17:14:46;;;;;;;12.82;9.20;;;21.40;98.60;;;;;;10352250;28;20220;-60
2024/03/07 17:19:48;;;;;;;13.88;10.32;;;21.20;99.90;;;;;;10359127;28;20061;-60
2024/03/07 17:24:50;;;;;;;12.85;9.30;;;20.10;99.90;;;;;;10356342;28;20046;-58
2024/03/07 17:29:53;;;;;;;13.00;9.27;;;20.80;99.90;;;;;;10350422;28;20088;-61
2024/03/07 17:34:55;;;;;;;12.43;9.07;;;20.50;99.90;;;;;;10357996;28;20080;-62
2024/03/07 17:39:58;;;;;;;10.68;6.97;;;20.90;99.60;;;;;;10354328;28;20424;-59
2024/03/07 17:45:01;;;;;;;10.13;7.15;;;20.80;99.90;;;;;;10349768;28;20138;-61
2024/03/07 17:50:04;;;;;;;12.38;7.40;;;20.80;99.90;;;;;;10358501;28;20057;-61
2024/03/07 17:55:07;;;;;;;;;;;20.70;98.10;;;;;;10365207;28;20141;-60
2024/03/07 18:00:15;;;;;;;17.70;9.93;;;20.60;99.70;;;;;;10359660;28;20639;-60
2024/03/07 18:05:18;;;;;;;8.57;6.30;;;20.50;99.70;;;;;;10359994;28;20191;-60
2024/03/07 18:10:21;;;;;;;11.88;9.15;;;20.40;99.90;;;;;;10356522;28;23074;-61
2024/03/07 18:15:27;;;;;;;13.50;8.30;;;19.90;99.90;;;;;;10363188;28;20086;-62
2024/03/07 18:20:30;;;;;;;15.07;10.52;;;19.70;99.90;;;;;;10364431;28;20054;-61
2024/03/07 18:25:35;;;;;;;15.32;9.18;;;19.40;99.90;;;;;;10358950;28;20057;-61
2024/03/07 18:30:38;;;;;;;15.95;9.85;;;19.20;99.90;;;;;;10356726;28;20058;-61
2024/03/07 18:35:42;;;;;;;17.13;11.15;;;19.10;99.90;;;;;;10364978;28;22592;-60
2024/03/07 18:40:44;;;;;;;15.88;9.73;;;19.10;99.90;;;;;;10363029;28;20134;-61
2024/03/07 18:45:51;;;;;;;17.27;11.60;;;19.00;99.90;;;;;;10360352;28;20136;-61
2024/03/07 18:50:53;;;;;;;18.67;11.18;;;18.70;99.90;;;;;;10361588;28;20084;-59
2024/03/07 18:55:56;;;;;;;16.95;9.75;;;18.80;99.90;;;;;;10360818;28;20106;-61
2024/03/07 19:01:04;;;;;;;12.32;8.23;;;19.20;99.90;;;;;;10357056;28;20860;-61
2024/03/07 19:06:08;;;;;;;12.73;7.93;;;19.20;99.90;;;;;;10355697;28;20084;-61
2024/03/07 19:11:12;;;;;;;11.98;7.90;;;19.20;99.90;;;;;;10352459;28;20748;-60
2024/03/07 19:16:16;;;;;;;15.75;10.25;;;19.30;99.90;;;;;;10353226;28;20049;-60
2024/03/07 19:21:20;;;;;;;19.98;10.02;;;19.10;99.90;;;;;;10355646;28;20203;-61
2024/03/07 19:26:22;;;;;;;17.83;8.25;;;19.20;99.90;;;;;;10355885;28;20084;-60
2024/03/07 19:31:25;;;;;;;12.80;8.95;;;19.00;99.90;;;;;;10355432;28;20103;-61
2024/03/07 19:36:27;;;;;;;15.90;10.90;;;19.10;99.90;;;;;;10357442;28;20576;-62
2024/03/07 19:41:31;;;;;;;13.27;7.82;;;18.80;99.90;;;;;;10357847;28;20057;-62
2024/03/07 19:46:34;;;;;;;18.55;10.32;;;18.90;99.90;;;;;;10355093;28;20057;-60
2024/03/07 19:51:36;;;;;;;18.67;10.05;;;18.70;99.90;;;;;;10350314;28;20227;-61
2024/03/07 19:56:38;;;;;;;20.73;12.02;;;18.80;99.90;;;;;;10358786;28;20049;-61
2024/03/07 20:01:44;;;;;;;20.50;12.45;;;18.90;99.90;;;;;;10361718;28;20061;-62
2024/03/07 20:06:46;;;;;;;20.10;10.52;;;18.70;99.90;;;;;;10351428;28;20053;-62
2024/03/07 20:11:49;;;;;;;31.95;11.65;;;18.50;99.90;;;;;;10354285;28;20061;-61
2024/03/07 20:16:53;;;;;;;19.92;11.63;;;18.40;99.90;;;;;;10359925;28;20521;-61
2024/03/07 20:21:57;;;;;;;11.25;6.88;;;18.40;99.90;;;;;;10358141;28;20815;-61
2024/03/07 20:27:00;;;;;;;23.35;10.32;;;18.40;99.90;;;;;;10358027;28;20045;-60
2024/03/07 20:32:05;;;;;;;18.58;10.80;;;18.30;99.90;;;;;;10353558;28;20705;-59
2024/03/07 20:37:09;;;;;;;22.10;12.18;;;18.30;99.90;;;;;;10351315;28;20831;-61
2024/03/07 20:42:11;;;;;;;23.45;11.98;;;18.20;99.90;;;;;;10355286;28;20049;-60
2024/03/07 20:47:15;;;;;;;24.35;11.95;;;18.00;99.90;;;;;;10350659;28;20156;-61
2024/03/07 20:52:17;;;;;;;25.23;15.60;;;18.10;99.90;;;;;;10347406;28;20064;-61
2024/03/07 20:57:19;;;;;;;31.75;15.52;;;17.00;99.90;;;;;;10357863;28;20045;-60
2024/03/07 21:02:24;;;;;;;31.73;15.48;;;16.50;99.90;;;;;;10358955;28;20144;-63
2024/03/07 21:07:26;;;;;;;30.20;14.70;;;16.80;99.90;;;;;;10357874;28;20062;-61
2024/03/07 21:12:28;;;;;;;27.38;12.60;;;16.90;99.90;;;;;;10355499;28;20057;-62
2024/03/07 21:17:32;;;;;;;27.98;15.23;;;16.90;99.90;;;;;;10359490;28;20176;-61
2024/03/07 21:22:34;;;;;;;24.20;12.27;;;16.50;99.90;;;;;;10357484;28;20057;-60
2024/03/07 21:27:37;;;;;;;21.60;11.07;;;17.30;99.90;;;;;;10359825;28;20115;-60
2024/03/07 21:32:41;;;;;;;18.95;9.68;;;17.40;99.90;;;;;;10356309;28;20539;-61
2024/03/07 21:37:44;;;;;;;28.35;14.27;;;17.50;99.90;;;;;;10352148;28;20913;-61
2024/03/07 21:42:47;;;;;;;;;;;17.70;99.90;;;;;;10356434;28;20064;-59
2024/03/07 21:47:50;;;;;;;18.67;9.20;;;17.50;99.90;;;;;;10357998;28;19944;-61
2024/03/07 21:52:54;;;;;;;17.20;9.13;;;17.40;99.90;;;;;;10356722;28;20068;-61
2024/03/07 21:57:57;;;;;;;16.33;8.77;;;17.50;99.90;;;;;;10366275;28;20041;-60
2024/03/07 22:03:00;;;;;;;28.75;14.57;;;17.40;99.90;;;;;;10361364;28;20174;-61
2024/03/07 22:08:04;;;;;;;25.17;14.45;;;17.30;99.90;;;;;;10359721;28;20614;-60
2024/03/07 22:13:06;;;;;;;28.70;13.43;;;17.30;99.90;;;;;;10359397;28;20180;-61
2024/03/07 22:18:09;;;;;;;17.88;9.90;;;17.30;99.90;;;;;;10361272;28;20204;-60
2024/03/07 22:23:11;;;;;;;22.80;10.13;;;17.20;99.90;;;;;;10364662;28;20111;-60
2024/03/07 22:28:13;;;;;;;31.88;16.70;;;17.20;99.90;;;;;;10365423;28;20109;-59
2024/03/07 22:33:17;;;;;;;27.58;13.20;;;17.10;99.90;;;;;;10362462;28;20061;-61
2024/03/07 22:38:21;;;;;;;21.92;9.88;;;17.20;99.90;;;;;;10363466;28;20497;-60
2024/03/07 22:43:23;;;;;;;22.15;10.23;;;17.10;99.90;;;;;;10364652;28;20118;-60
2024/03/07 22:48:28;;;;;;;24.00;12.13;;;17.00;99.90;;;;;;10365524;28;20053;-63
2024/03/07 22:53:30;;;;;;;22.02;10.75;;;16.80;99.90;;;;;;10357211;28;20845;-61
2024/03/07 22:58:32;;;;;;;19.13;8.83;;;16.90;99.90;;;;;;10354855;28;20096;-60
2024/03/07 23:03:37;;;;;;;26.15;12.82;;;16.80;99.90;;;;;;10360437;28;20054;-60
2024/03/07 23:08:40;;;;;;;16.50;7.72;;;16.60;99.90;;;;;;10365914;28;20076;-61
2024/03/07 23:13:43;;;;;;;24.48;13.88;;;16.70;99.90;;;;;;10366000;28;20064;-61
2024/03/07 23:18:46;;;;;;;21.90;12.10;;;16.60;99.90;;;;;;10356425;28;20050;-60
2024/03/07 23:23:48;;;;;;;19.88;8.57;;;16.60;99.90;;;;;;10359608;28;20057;-59
2024/03/07 23:28:50;;;;;;;18.93;9.97;;;16.60;99.90;;;;;;10367434;28;20148;-61
2024/03/07 23:33:54;;;;;;;18.45;9.02;;;16.50;99.90;;;;;;10364904;28;20476;-61
2024/03/07 23:39:01;;;;;;;19.02;10.68;;;16.60;99.90;;;;;;10361460;28;20045;-57
2024/03/07 23:44:03;;;;;;;19.80;10.75;;;16.40;99.90;;;;;;10371037;28;20057;-60
2024/03/07 23:49:06;;;;;;;18.37;10.80;;;16.40;99.90;;;;;;10367100;28;20224;-61
2024/03/07 23:54:08;;;;;;;16.48;10.52;;;16.50;99.90;;;;;;10366103;28;20077;-61
2024/03/07 23:59:10;;;;;;;24.93;12.97;;;16.30;99.90;;;;;;10366766;28;20420;-60
